Ocean Wind — WDG5141 — position and weather

sailwx.info

Track history (hours):
 
Tides and Currents Weather Stations Pressure Air Temp Water Temp Dewpoint Dewpoint Depression Visibility Wind Speed Wind Dir Waves Ship Positions

Ocean Wind

Owner: CROWLEY MARINE SERVIES, INC, SEATTLE, WA. More information available from US FCC via Universal Licensing System and Coast Guard Vessel Documentation Center.

Last reported at 2018-Jan-22 23:50 UTC. Time now 2018-Jan-23 23:57 UTC.
Position N 27°58' W 096°28'.

Length 45 m; draft 6.5 m.

Type: Tug. MMSI: 338737000.

Date/timePositionNaut miles runAvg speedWind from/ knotsBaromVisibWave heightAir tempDewpointWater temp
2018-Jan-22 23:50N 27°58' W 096°28'3 9.9
2018-Jan-22 23:29N 27°56' W 096°31'5 9.6
2018-Jan-22 22:58N 27°53' W 096°36'5 9.7
2018-Jan-22 22:29N 27°51' W 096°40'5 9.5
2018-Jan-22 21:59N 27°48' W 096°45'5 9.3
2018-Jan-22 21:29N 27°46' W 096°49'4 9.1
2018-Jan-22 21:00N 27°45' W 096°54'4 7.7
2018-Jan-22 20:28N 27°47' W 096°58'3 7.2
2018-Jan-22 19:59N 27°49' W 097°01'4 9.4
2018-Jan-22 19:30N 27°50' W 097°06'510.0
2018-Jan-22 19:00N 27°49' W 097°12'3 5.7
2018-Jan-22 18:30N 27°51' W 097°14'0 0.2
2018-Jan-22 17:59N 27°51' W 097°14'0 0.0
2018-Jan-22 17:30N 27°51' W 097°14'0 0.8
2018-Jan-22 16:59N 27°51' W 097°14'0 0.0
2018-Jan-22 16:29N 27°51' W 097°14'0 0.0
2018-Jan-22 15:59N 27°51' W 097°14'0 0.0
2018-Jan-22 15:29N 27°51' W 097°14'0 0.0
2018-Jan-22 14:59N 27°51' W 097°14'0 0.0
2018-Jan-22 14:29N 27°51' W 097°14'0 0.0
2018-Jan-22 13:59N 27°51' W 097°14'0 0.0
2018-Jan-22 13:29N 27°51' W 097°14'0 0.0
2018-Jan-22 12:59N 27°51' W 097°14'0 0.0
2018-Jan-22 12:26N 27°51' W 097°14'0 0.0
2018-Jan-22 11:59N 27°51' W 097°14'0 0.0
2018-Jan-22 11:26N 27°51' W 097°14'0 0.0
2018-Jan-22 10:59N 27°51' W 097°14'0 0.0
2018-Jan-22 03:44N 27°51' W 097°14'0 0.0
2018-Jan-22 03:23N 27°51' W 097°14'0 0.0
2018-Jan-22 02:59N 27°51' W 097°14'0 0.0
2018-Jan-22 02:26N 27°51' W 097°14'0 0.0
2018-Jan-22 01:56N 27°51' W 097°14'0 0.9
2018-Jan-22 01:30N 27°51' W 097°14'0 0.2
2018-Jan-22 01:00N 27°51' W 097°14'0 0.0
2018-Jan-22 00:29N 27°51' W 097°14'2 2.7
2018-Jan-21 23:54N 27°50' W 097°14'3 7.7
2018-Jan-21 23:27N 27°49' W 097°10'4 8.5
2018-Jan-21 22:58N 27°50' W 097°05'3 7.2
2018-Jan-21 22:30N 27°50' W 097°01'2 4.6
2018-Jan-21 22:00N 27°50' W 096°59'1 2.4
2018-Jan-21 21:30N 27°50' W 097°00'2 3.4
2018-Jan-21 21:00N 27°49' W 096°59'2 3.6
2018-Jan-21 20:30N 27°48' W 096°57'0 0.5
2018-Jan-21 20:00N 27°48' W 096°57'2 4.5
2018-Jan-21 19:30N 27°47' W 096°55'2 4.8
2018-Jan-21 18:59N 27°45' W 096°53'67856884.9
2018-Jan-21 18:00N 33°16' E 132°00'713.1
2018-Jan-21 17:30N 33°22' E 131°56'67886650.9
2018-Jan-21 16:29N 27°44' W 096°52'1 2.7
2018-Jan-21 15:59N 27°45' W 096°53'1 2.6
2018-Jan-21 15:30N 27°46' W 096°54'2 2.6
2018-Jan-21 14:54N 27°47' W 096°56'1 1.7
2018-Jan-21 14:30N 27°47' W 096°56'673913263.4
2018-Jan-21 13:59N 33°49' E 132°30'610.3
2018-Jan-21 13:27N 33°53' E 132°35'510.0
2018-Jan-21 13:00N 33°57' E 132°34'4 8.0
2018-Jan-21 12:30N 34°01' E 132°32'710.0
2018-Jan-21 11:49N 34°04' E 132°25'411.3
2018-Jan-21 11:29N 34°07' E 132°22'510.6
2018-Jan-21 11:00N 34°08' E 132°16'675612761.1
2018-Jan-21 10:29N 27°39' W 096°44'2 3.9
2018-Jan-21 09:52N 27°41' W 096°46'3 3.6
2018-Jan-21 09:10N 27°42' W 096°48'1 3.7
2018-Jan-21 09:00N 27°42' W 096°49'6 3.7
2018-Jan-21 07:29N 27°45' W 096°55'2 4.4
2018-Jan-21 06:58N 27°46' W 096°57'2 4.2
2018-Jan-21 06:28N 27°48' W 096°58'2 4.5
2018-Jan-21 06:00N 27°47' W 096°56'674213147.5
2018-Jan-21 05:29N 34°08' E 132°15'0 0.0
2018-Jan-21 04:59N 34°08' E 132°15'1 1.9
2018-Jan-21 04:30N 34°08' E 132°16'610.9
2018-Jan-21 03:57N 34°07' E 132°23'612.0
2018-Jan-21 03:29N 34°02' E 132°27'611.4
2018-Jan-21 03:00N 34°01' E 132°34'611.6
2018-Jan-21 02:30N 33°55' E 132°36'67357926.4
2018-Jan-21 01:39N 27°44' W 096°53'1 4.8
2018-Jan-21 01:27N 27°45' W 096°54'675413668.3
2018-Jan-21 00:58N 33°40' E 132°21'612.7
2018-Jan-21 00:29N 33°36' E 132°16'675614164.8
2018-Jan-21 00:00N 27°48' W 096°58'677012694.1
2018-Jan-20 23:28N 33°27' E 132°05'613.4
2018-Jan-20 23:00N 33°22' E 131°60'611.4
2018-Jan-20 22:27N 33°16' E 132°03'677914666.7
2018-Jan-20 21:59N 27°46' W 096°57'677613884.1
2018-Jan-20 21:30N 33°07' E 132°12'677713110.7
2018-Jan-20 20:59N 27°47' W 096°55'2 4.0
2018-Jan-20 20:29N 27°46' W 096°53'2 3.0
2018-Jan-20 19:59N 27°46' W 096°54'3 5.4
2018-Jan-20 19:29N 27°45' W 096°52'2 5.0
2018-Jan-20 19:00N 27°44' W 096°49'2 3.7
2018-Jan-20 18:30N 27°42' W 096°49'2 4.4
2018-Jan-20 18:00N 27°43' W 096°51'2 4.5
2018-Jan-20 17:30N 27°44' W 096°53'2 4.6
2018-Jan-20 16:58N 27°46' W 096°55'1 2.7
2018-Jan-20 16:30N 27°47' W 096°55'3 5.8
2018-Jan-20 16:00N 27°46' W 096°52'3 5.8
2018-Jan-20 15:30N 27°44' W 096°50'2 4.5
2018-Jan-20 15:00N 27°42' W 096°49'2 4.1
2018-Jan-20 14:28N 27°43' W 096°51'2 4.2
2018-Jan-20 14:00N 27°45' W 096°53'2 3.7
2018-Jan-20 13:29N 27°45' W 096°54'1 2.9
2018-Jan-20 12:59N 27°47' W 096°55'2 4.7
2018-Jan-20 12:29N 27°46' W 096°53'1 2.6
2018-Jan-20 11:59N 27°45' W 096°52'3 5.2
2018-Jan-20 11:27N 27°44' W 096°49'4 7.2
2018-Jan-20 10:57N 27°42' W 096°45'4 7.1
2018-Jan-20 10:27N 27°41' W 096°42'3 7.0
2018-Jan-20 09:59N 27°39' W 096°38'3 6.9
2018-Jan-20 09:29N 27°38' W 096°35'  
Track history (hours):
 
Tides and Currents Weather Stations Pressure Air Temp Water Temp Dewpoint Dewpoint Depression Visibility Wind Speed Wind Dir Waves Ship Positions

Ocean Wind

Owner: CROWLEY MARINE SERVIES, INC, SEATTLE, WA. More information available from US FCC via Universal Licensing System and Coast Guard Vessel Documentation Center.

Last reported at 2018-Jan-22 23:50 UTC. Time now 2018-Jan-23 23:57 UTC.
Position N 27°58' W 096°28'.

Length 45 m; draft 6.5 m.

Type: Tug. MMSI: 338737000.

Date/timePositionNaut miles runAvg speedWind from/ knotsBaromVisibWave heightAir tempDewpointWater temp
2018-Jan-22 23:50N 27°58' W 096°28'3 9.9
2018-Jan-22 23:29N 27°56' W 096°31'5 9.6
2018-Jan-22 22:58N 27°53' W 096°36'5 9.7
2018-Jan-22 22:29N 27°51' W 096°40'5 9.5
2018-Jan-22 21:59N 27°48' W 096°45'5 9.3
2018-Jan-22 21:29N 27°46' W 096°49'4 9.1
2018-Jan-22 21:00N 27°45' W 096°54'4 7.7
2018-Jan-22 20:28N 27°47' W 096°58'3 7.2
2018-Jan-22 19:59N 27°49' W 097°01'4 9.4
2018-Jan-22 19:30N 27°50' W 097°06'510.0
2018-Jan-22 19:00N 27°49' W 097°12'3 5.7
2018-Jan-22 18:30N 27°51' W 097°14'0 0.2
2018-Jan-22 17:59N 27°51' W 097°14'0 0.0
2018-Jan-22 17:30N 27°51' W 097°14'0 0.8
2018-Jan-22 16:59N 27°51' W 097°14'0 0.0
2018-Jan-22 16:29N 27°51' W 097°14'0 0.0
2018-Jan-22 15:59N 27°51' W 097°14'0 0.0
2018-Jan-22 15:29N 27°51' W 097°14'0 0.0
2018-Jan-22 14:59N 27°51' W 097°14'0 0.0
2018-Jan-22 14:29N 27°51' W 097°14'0 0.0
2018-Jan-22 13:59N 27°51' W 097°14'0 0.0
2018-Jan-22 13:29N 27°51' W 097°14'0 0.0
2018-Jan-22 12:59N 27°51' W 097°14'0 0.0
2018-Jan-22 12:26N 27°51' W 097°14'0 0.0
2018-Jan-22 11:59N 27°51' W 097°14'0 0.0
2018-Jan-22 11:26N 27°51' W 097°14'0 0.0
2018-Jan-22 10:59N 27°51' W 097°14'0 0.0
2018-Jan-22 03:44N 27°51' W 097°14'0 0.0
2018-Jan-22 03:23N 27°51' W 097°14'0 0.0
2018-Jan-22 02:59N 27°51' W 097°14'0 0.0
2018-Jan-22 02:26N 27°51' W 097°14'0 0.0
2018-Jan-22 01:56N 27°51' W 097°14'0 0.9
2018-Jan-22 01:30N 27°51' W 097°14'0 0.2
2018-Jan-22 01:00N 27°51' W 097°14'0 0.0
2018-Jan-22 00:29N 27°51' W 097°14'2 2.7
2018-Jan-21 23:54N 27°50' W 097°14'3 7.7
2018-Jan-21 23:27N 27°49' W 097°10'4 8.5
2018-Jan-21 22:58N 27°50' W 097°05'3 7.2
2018-Jan-21 22:30N 27°50' W 097°01'2 4.6
2018-Jan-21 22:00N 27°50' W 096°59'1 2.4
2018-Jan-21 21:30N 27°50' W 097°00'2 3.4
2018-Jan-21 21:00N 27°49' W 096°59'2 3.6
2018-Jan-21 20:30N 27°48' W 096°57'0 0.5
2018-Jan-21 20:00N 27°48' W 096°57'2 4.5
2018-Jan-21 19:30N 27°47' W 096°55'2 4.8
2018-Jan-21 18:59N 27°45' W 096°53'67856884.9
2018-Jan-21 18:00N 33°16' E 132°00'713.1
2018-Jan-21 17:30N 33°22' E 131°56'67886650.9
2018-Jan-21 16:29N 27°44' W 096°52'1 2.7
2018-Jan-21 15:59N 27°45' W 096°53'1 2.6
2018-Jan-21 15:30N 27°46' W 096°54'2 2.6
2018-Jan-21 14:54N 27°47' W 096°56'1 1.7
2018-Jan-21 14:30N 27°47' W 096°56'673913263.4
2018-Jan-21 13:59N 33°49' E 132°30'610.3
2018-Jan-21 13:27N 33°53' E 132°35'510.0
2018-Jan-21 13:00N 33°57' E 132°34'4 8.0
2018-Jan-21 12:30N 34°01' E 132°32'710.0
2018-Jan-21 11:49N 34°04' E 132°25'411.3
2018-Jan-21 11:29N 34°07' E 132°22'510.6
2018-Jan-21 11:00N 34°08' E 132°16'675612761.1
2018-Jan-21 10:29N 27°39' W 096°44'2 3.9
2018-Jan-21 09:52N 27°41' W 096°46'3 3.6
2018-Jan-21 09:10N 27°42' W 096°48'1 3.7
2018-Jan-21 09:00N 27°42' W 096°49'6 3.7
2018-Jan-21 07:29N 27°45' W 096°55'2 4.4
2018-Jan-21 06:58N 27°46' W 096°57'2 4.2
2018-Jan-21 06:28N 27°48' W 096°58'2 4.5
2018-Jan-21 06:00N 27°47' W 096°56'674213147.5
2018-Jan-21 05:29N 34°08' E 132°15'0 0.0
2018-Jan-21 04:59N 34°08' E 132°15'1 1.9
2018-Jan-21 04:30N 34°08' E 132°16'610.9
2018-Jan-21 03:57N 34°07' E 132°23'612.0
2018-Jan-21 03:29N 34°02' E 132°27'611.4
2018-Jan-21 03:00N 34°01' E 132°34'611.6
2018-Jan-21 02:30N 33°55' E 132°36'67357926.4
2018-Jan-21 01:39N 27°44' W 096°53'1 4.8
2018-Jan-21 01:27N 27°45' W 096°54'675413668.3
2018-Jan-21 00:58N 33°40' E 132°21'612.7
2018-Jan-21 00:29N 33°36' E 132°16'675614164.8
2018-Jan-21 00:00N 27°48' W 096°58'677012694.1
2018-Jan-20 23:28N 33°27' E 132°05'613.4
2018-Jan-20 23:00N 33°22' E 131°60'611.4
2018-Jan-20 22:27N 33°16' E 132°03'677914666.7
2018-Jan-20 21:59N 27°46' W 096°57'677613884.1
2018-Jan-20 21:30N 33°07' E 132°12'677713110.7
2018-Jan-20 20:59N 27°47' W 096°55'2 4.0
2018-Jan-20 20:29N 27°46' W 096°53'2 3.0
2018-Jan-20 19:59N 27°46' W 096°54'3 5.4
2018-Jan-20 19:29N 27°45' W 096°52'2 5.0
2018-Jan-20 19:00N 27°44' W 096°49'2 3.7
2018-Jan-20 18:30N 27°42' W 096°49'2 4.4
2018-Jan-20 18:00N 27°43' W 096°51'2 4.5
2018-Jan-20 17:30N 27°44' W 096°53'2 4.6
2018-Jan-20 16:58N 27°46' W 096°55'1 2.7
2018-Jan-20 16:30N 27°47' W 096°55'3 5.8
2018-Jan-20 16:00N 27°46' W 096°52'3 5.8
2018-Jan-20 15:30N 27°44' W 096°50'2 4.5
2018-Jan-20 15:00N 27°42' W 096°49'2 4.1
2018-Jan-20 14:28N 27°43' W 096°51'2 4.2
2018-Jan-20 14:00N 27°45' W 096°53'2 3.7
2018-Jan-20 13:29N 27°45' W 096°54'1 2.9
2018-Jan-20 12:59N 27°47' W 096°55'2 4.7
2018-Jan-20 12:29N 27°46' W 096°53'1 2.6
2018-Jan-20 11:59N 27°45' W 096°52'3 5.2
2018-Jan-20 11:27N 27°44' W 096°49'4 7.2
2018-Jan-20 10:57N 27°42' W 096°45'4 7.1
2018-Jan-20 10:27N 27°41' W 096°42'3 7.0
2018-Jan-20 09:59N 27°39' W 096°38'3 6.9
2018-Jan-20 09:29N 27°38' W 096°35'  

Dump ship's entire track history